createdAt,value
2018-06-19T00:01:47.656Z,14.88
2018-06-19T00:04:14.793Z,14.23
2018-06-19T00:06:41.960Z,14.28
2018-06-19T00:09:09.276Z,14.59
2018-06-19T00:11:36.404Z,14.59
2018-06-19T00:14:03.604Z,14.87
2018-06-19T00:16:30.760Z,14.85
2018-06-19T00:18:59.058Z,14.68
2018-06-19T00:21:33.173Z,14.59
2018-06-19T00:24:00.388Z,14.64
2018-06-19T00:26:27.550Z,14.90
2018-06-19T00:28:54.665Z,14.87
2018-06-19T00:31:21.855Z,14.88
2018-06-19T00:33:48.996Z,15.10
2018-06-19T00:36:16.218Z,15.16
2018-06-19T00:38:43.413Z,15.15
2018-06-19T00:41:10.528Z,15.12
2018-06-19T00:43:37.656Z,15.09
2018-06-19T00:46:05.988Z,14.93
2018-06-19T00:48:33.145Z,14.77
2018-06-19T00:51:00.377Z,14.89
2018-06-19T00:53:27.548Z,14.89
2018-06-19T00:56:05.245Z,14.73
2018-06-19T00:58:32.564Z,14.72
2018-06-19T01:00:59.709Z,14.60
2018-06-19T01:03:26.807Z,14.36
2018-06-19T01:05:53.973Z,14.31
2018-06-19T01:08:21.156Z,14.52
2018-06-19T01:10:48.236Z,14.52
2018-06-19T01:13:15.339Z,14.57
2018-06-19T01:15:42.460Z,14.41
2018-06-19T01:18:09.588Z,13.71
2018-06-19T01:20:36.728Z,13.75
2018-06-19T01:23:04.088Z,13.74
2018-06-19T01:25:31.228Z,13.83
2018-06-19T01:27:58.356Z,14.00
2018-06-19T01:30:25.489Z,13.86
2018-06-19T01:32:52.593Z,13.82
2018-06-19T01:35:19.685Z,13.93
2018-06-19T01:37:46.840Z,13.78
2018-06-19T01:40:13.933Z,13.97
2018-06-19T01:42:41.053Z,14.05
2018-06-19T01:45:08.169Z,14.08
2018-06-19T01:47:35.305Z,13.88
2018-06-19T01:50:02.564Z,13.68
2018-06-19T01:52:29.708Z,13.77
2018-06-19T01:54:56.841Z,13.87
2018-06-19T01:57:23.999Z,13.78
2018-06-19T01:59:51.117Z,13.80
2018-06-19T02:02:18.280Z,13.81
2018-06-19T02:04:45.336Z,13.85
2018-06-19T02:07:12.521Z,13.54
2018-06-19T02:09:39.756Z,13.37
2018-06-19T02:12:06.868Z,13.46
2018-06-19T02:14:34.029Z,13.58
2018-06-19T02:17:01.168Z,13.59
2018-06-19T02:19:28.323Z,13.47
2018-06-19T02:21:55.481Z,13.67
2018-06-19T02:24:22.686Z,13.71
2018-06-19T02:26:49.788Z,13.59
2018-06-19T02:29:16.945Z,13.69
2018-06-19T02:31:44.061Z,13.53
2018-06-19T02:34:11.175Z,13.41
2018-06-19T02:36:38.291Z,13.15
2018-06-19T02:39:07.269Z,12.85
2018-06-19T02:41:34.424Z,13.26
2018-06-19T02:44:01.772Z,13.41
2018-06-19T02:46:28.853Z,13.31
2018-06-19T02:48:55.958Z,13.39
2018-06-19T02:51:23.113Z,13.00
2018-06-19T02:53:50.240Z,13.10
2018-06-19T02:56:17.373Z,13.00
2018-06-19T02:58:44.513Z,13.17
2018-06-19T03:01:11.636Z,13.22
2018-06-19T03:03:38.717Z,13.36
2018-06-19T03:06:05.849Z,13.45
2018-06-19T03:08:32.964Z,13.31
2018-06-19T03:11:00.132Z,13.26
2018-06-19T03:13:27.285Z,13.50
2018-06-19T03:15:54.387Z,13.23
2018-06-19T03:18:21.512Z,13.33
2018-06-19T03:20:48.660Z,13.11
2018-06-19T03:23:15.804Z,13.10
2018-06-19T03:25:42.937Z,13.45
2018-06-19T03:28:10.057Z,13.70
2018-06-19T03:30:37.150Z,13.68
2018-06-19T03:33:04.268Z,13.78
2018-06-19T03:35:31.425Z,13.96
2018-06-19T03:37:58.533Z,14.01
2018-06-19T03:40:25.637Z,13.94
2018-06-19T03:42:52.765Z,13.93
2018-06-19T03:45:19.881Z,13.88
2018-06-19T03:47:47.051Z,13.97
2018-06-19T03:50:14.185Z,13.77
2018-06-19T03:52:41.314Z,13.85
2018-06-19T03:55:08.476Z,14.02
2018-06-19T03:57:35.597Z,14.15
2018-06-19T04:00:02.888Z,14.15
2018-06-19T04:02:30.018Z,14.42
2018-06-19T04:04:57.140Z,14.42
2018-06-19T04:07:24.269Z,14.41
2018-06-19T04:09:51.408Z,14.24
2018-06-19T04:12:18.582Z,14.38
2018-06-19T04:14:45.807Z,14.31
2018-06-19T04:17:20.540Z,14.12
2018-06-19T04:19:47.889Z,14.35
2018-06-19T04:22:15.068Z,14.40
2018-06-19T04:24:42.225Z,14.42
2018-06-19T04:27:09.339Z,14.47
2018-06-19T04:29:36.514Z,14.32
2018-06-19T04:32:03.664Z,14.39
2018-06-19T04:34:30.776Z,14.54
2018-06-19T04:36:57.860Z,14.74
2018-06-19T04:39:24.993Z,14.61
2018-06-19T04:41:52.081Z,14.83
2018-06-19T04:44:19.224Z,14.92
2018-06-19T04:46:46.316Z,15.04
2018-06-19T04:49:13.525Z,15.00
2018-06-19T04:51:40.639Z,15.02
2018-06-19T04:54:07.741Z,15.11
2018-06-19T04:56:34.860Z,15.14
2018-06-19T04:59:02.165Z,15.16
2018-06-19T05:01:29.337Z,15.24
2018-06-19T05:03:56.488Z,15.36
2018-06-19T05:06:23.668Z,15.44
2018-06-19T05:08:50.867Z,15.69
2018-06-19T05:11:17.997Z,15.75
2018-06-19T05:13:45.138Z,15.56
2018-06-19T05:16:12.272Z,15.60
2018-06-19T05:18:39.439Z,15.56
2018-06-19T05:21:06.592Z,15.80
2018-06-19T05:23:33.851Z,16.02
2018-06-19T05:26:01.001Z,15.94
2018-06-19T05:28:28.080Z,15.86
2018-06-19T05:30:55.201Z,15.90
2018-06-19T05:33:22.340Z,15.80
2018-06-19T05:35:49.484Z,15.86
2018-06-19T05:38:16.596Z,15.98
2018-06-19T05:40:43.664Z,16.02
2018-06-19T05:43:10.877Z,16.30
2018-06-19T05:45:38.038Z,16.45
2018-06-19T05:48:05.187Z,16.55
2018-06-19T05:50:32.296Z,16.67
2018-06-19T05:52:59.420Z,16.72
2018-06-19T05:55:26.541Z,16.85
2018-06-19T05:57:53.680Z,17.03
2018-06-19T06:00:20.815Z,16.96
2018-06-19T06:02:47.959Z,17.09
2018-06-19T06:05:15.096Z,17.32
2018-06-19T06:07:42.244Z,17.46
2018-06-19T06:10:10.209Z,17.53
2018-06-19T06:12:37.324Z,17.70
2018-06-19T06:15:04.560Z,17.69
2018-06-19T06:17:31.781Z,17.69
2018-06-19T06:19:58.893Z,17.84
2018-06-19T06:22:25.989Z,17.98
2018-06-19T06:24:53.253Z,17.98
2018-06-19T06:27:20.335Z,18.09
2018-06-19T06:29:47.557Z,18.07
2018-06-19T06:32:14.644Z,18.09
2018-06-19T06:34:41.724Z,18.24
2018-06-19T06:37:08.892Z,18.50
2018-06-19T06:39:36.029Z,18.47
2018-06-19T06:42:03.165Z,18.37
2018-06-19T06:44:30.324Z,18.41
2018-06-19T06:46:57.480Z,18.30
2018-06-19T06:49:24.619Z,18.53
2018-06-19T06:51:51.796Z,18.70
2018-06-19T06:54:18.992Z,18.69
2018-06-19T06:56:46.108Z,18.73
2018-06-19T06:59:13.311Z,18.59
2018-06-19T07:01:40.471Z,18.89
2018-06-19T07:04:07.938Z,19.02
2018-06-19T07:06:35.153Z,18.89
2018-06-19T07:09:02.988Z,18.85
2018-06-19T07:11:30.073Z,18.76
2018-06-19T07:13:57.233Z,18.76
2018-06-19T07:16:24.437Z,18.79
2018-06-19T07:18:51.649Z,19.14
2018-06-19T07:21:18.794Z,19.12
2018-06-19T07:23:46.017Z,19.48
2018-06-19T07:26:13.240Z,19.71
2018-06-19T07:28:40.347Z,19.80
2018-06-19T07:31:07.449Z,19.67
2018-06-19T07:33:34.584Z,19.59
2018-06-19T07:36:01.704Z,20.06
2018-06-19T07:38:28.812Z,20.12
2018-06-19T07:40:55.936Z,20.41
2018-06-19T07:43:23.090Z,20.25
2018-06-19T07:45:50.265Z,20.14
2018-06-19T07:48:17.396Z,20.57
2018-06-19T07:50:44.568Z,20.85
2018-06-19T07:53:11.673Z,21.69
2018-06-19T07:55:38.831Z,21.95
2018-06-19T07:58:05.925Z,21.60
2018-06-19T08:00:33.072Z,21.93
2018-06-19T08:03:00.193Z,21.71
2018-06-19T08:05:27.362Z,22.18
2018-06-19T08:07:54.475Z,22.60
2018-06-19T08:10:21.585Z,22.36
2018-06-19T08:12:48.711Z,21.89
2018-06-19T08:15:16.241Z,21.01
2018-06-19T08:17:43.372Z,20.93
2018-06-19T08:20:10.965Z,20.72
2018-06-19T08:22:38.157Z,20.39
2018-06-19T08:25:05.403Z,20.64
2018-06-19T08:27:32.537Z,20.40
2018-06-19T08:29:59.685Z,20.57
2018-06-19T08:32:26.849Z,20.24
2018-06-19T08:34:53.939Z,20.76
2018-06-19T08:37:21.081Z,21.94
2018-06-19T08:39:48.224Z,22.04
2018-06-19T08:42:15.376Z,23.19
2018-06-19T08:44:42.498Z,23.29
2018-06-19T08:47:09.660Z,21.84
2018-06-19T08:49:36.796Z,21.48
2018-06-19T08:52:03.976Z,21.74
2018-06-19T08:54:31.117Z,21.06
2018-06-19T08:56:58.221Z,21.21
2018-06-19T08:59:25.383Z,21.17
2018-06-19T09:01:52.497Z,21.15
2018-06-19T09:04:19.649Z,21.00
2018-06-19T09:06:46.808Z,21.01
2018-06-19T09:09:13.960Z,21.13
2018-06-19T09:11:41.163Z,21.02
2018-06-19T09:14:08.264Z,20.83
2018-06-19T09:16:35.624Z,20.55
2018-06-19T09:19:02.796Z,20.48
2018-06-19T09:21:29.952Z,20.42
2018-06-19T09:23:57.144Z,20.47
2018-06-19T09:26:24.320Z,20.56
2018-06-19T09:28:51.512Z,20.71
2018-06-19T09:31:18.685Z,20.89
2018-06-19T09:33:45.844Z,21.02
2018-06-19T09:36:12.969Z,21.14
2018-06-19T09:38:40.080Z,21.25
2018-06-19T09:41:07.202Z,21.36
2018-06-19T09:43:34.381Z,21.59
2018-06-19T09:46:01.496Z,21.57
2018-06-19T09:48:28.684Z,21.60
2018-06-19T09:50:55.864Z,22.45
2018-06-19T09:53:22.990Z,22.90
2018-06-19T09:55:50.148Z,22.39
2018-06-19T09:58:17.537Z,22.22
2018-06-19T10:00:44.784Z,21.86
2018-06-19T10:03:11.995Z,21.62
2018-06-19T10:05:39.182Z,21.78
2018-06-19T10:08:06.257Z,21.74
2018-06-19T10:10:33.393Z,21.80
2018-06-19T10:13:00.534Z,21.52
2018-06-19T10:15:27.684Z,21.57
2018-06-19T10:17:54.844Z,21.29
2018-06-19T10:20:21.943Z,21.76
2018-06-19T10:22:49.075Z,21.80
2018-06-19T10:25:16.296Z,21.93
2018-06-19T10:27:43.441Z,22.40
2018-06-19T10:30:10.716Z,22.63
2018-06-19T10:32:37.836Z,22.64
2018-06-19T10:35:05.074Z,23.54
2018-06-19T10:37:32.229Z,23.59
2018-06-19T10:40:00.159Z,23.58
2018-06-19T10:42:27.315Z,23.73
2018-06-19T10:44:54.408Z,23.43
2018-06-19T10:47:21.512Z,23.55
2018-06-19T10:49:48.676Z,22.92
2018-06-19T10:52:15.848Z,23.04
2018-06-19T10:54:43.020Z,23.18
2018-06-19T10:57:10.125Z,23.19
2018-06-19T10:59:37.304Z,23.17
2018-06-19T11:02:04.435Z,23.12
2018-06-19T11:04:31.579Z,23.25
2018-06-19T11:06:58.745Z,23.28
2018-06-19T11:09:25.917Z,23.15
2018-06-19T11:11:53.108Z,22.98
2018-06-19T11:14:20.305Z,23.10
2018-06-19T11:16:47.472Z,23.10
2018-06-19T11:19:14.591Z,23.17
2018-06-19T11:21:41.705Z,22.93
2018-06-19T11:24:08.960Z,23.71
2018-06-19T11:26:36.097Z,23.62
2018-06-19T11:29:03.323Z,23.76
2018-06-19T11:31:30.433Z,23.64
2018-06-19T11:33:57.591Z,23.40
2018-06-19T11:36:24.753Z,23.35
2018-06-19T11:38:51.896Z,23.46
2018-06-19T11:41:19.056Z,23.57
2018-06-19T11:43:46.196Z,23.41
2018-06-19T11:46:13.344Z,23.01
2018-06-19T11:48:40.535Z,22.80
2018-06-19T11:51:07.899Z,22.99
2018-06-19T11:53:35.037Z,22.94
2018-06-19T11:56:02.163Z,22.96
2018-06-19T11:58:29.410Z,22.93
2018-06-19T12:00:56.521Z,22.88
2018-06-19T12:03:23.689Z,23.12
2018-06-19T12:05:50.841Z,22.86
2018-06-19T12:08:17.976Z,22.76
2018-06-19T12:10:45.152Z,23.01
2018-06-19T12:13:12.275Z,23.02
2018-06-19T12:15:39.432Z,23.02
2018-06-19T12:18:06.579Z,22.64
2018-06-19T12:20:33.736Z,22.50
2018-06-19T12:23:00.965Z,22.77
2018-06-19T12:25:28.097Z,22.85
2018-06-19T12:27:55.362Z,23.00
2018-06-19T12:30:22.508Z,22.82
2018-06-19T12:32:49.669Z,22.76
2018-06-19T12:35:16.805Z,23.20
2018-06-19T12:37:43.945Z,23.33
2018-06-19T12:40:11.059Z,22.82
2018-06-19T12:42:38.232Z,23.36
2018-06-19T12:45:05.469Z,23.45
2018-06-19T12:47:32.591Z,23.27
2018-06-19T12:50:38.834Z,22.93
2018-06-19T12:53:18.033Z,22.82
2018-06-19T12:55:57.188Z,22.98
2018-06-19T12:58:24.439Z,22.91
2018-06-19T13:00:51.637Z,22.50
2018-06-19T13:03:30.381Z,22.89
2018-06-19T13:06:09.454Z,22.82
2018-06-19T13:08:36.677Z,22.93
2018-06-19T13:11:04.594Z,23.09
2018-06-19T13:13:43.173Z,22.92
2018-06-19T13:16:21.925Z,23.27
2018-06-19T13:19:00.533Z,23.14
2018-06-19T13:21:27.739Z,22.94
2018-06-19T13:23:54.965Z,23.30
2018-06-19T13:26:22.160Z,23.59
2018-06-19T13:30:01.000Z,23.50
2018-06-19T13:32:28.534Z,23.70
2018-06-19T13:34:55.700Z,24.11
2018-06-19T13:37:22.859Z,24.11
2018-06-19T13:41:07.890Z,24.09
2018-06-19T13:43:46.790Z,23.55
2018-06-19T13:46:13.984Z,23.72
2018-06-19T13:48:41.838Z,24.74
2018-06-19T13:51:09.504Z,25.19
2018-06-19T13:53:36.678Z,25.39
2018-06-19T13:57:19.768Z,24.62
2018-06-19T13:59:46.904Z,24.34
2018-06-19T14:02:14.037Z,23.93
2018-06-19T14:04:41.200Z,23.78
2018-06-19T14:07:08.344Z,23.58
2018-06-19T14:09:48.241Z,23.59
2018-06-19T14:12:29.082Z,23.75
2018-06-19T14:14:56.234Z,24.11
2018-06-19T14:17:24.292Z,23.46
2018-06-19T14:19:52.263Z,23.62
2018-06-19T14:22:19.435Z,23.61
2018-06-19T14:24:46.649Z,23.77
2018-06-19T14:27:14.037Z,24.04
2018-06-19T14:29:41.365Z,24.03
2018-06-19T14:32:08.500Z,23.47
2018-06-19T14:34:35.576Z,23.85
2018-06-19T14:37:02.922Z,23.86
2018-06-19T14:39:30.065Z,23.40
2018-06-19T14:41:57.220Z,23.11
2018-06-19T14:44:25.156Z,23.00
2018-06-19T14:46:52.611Z,23.03
2018-06-19T14:49:19.880Z,22.83
2018-06-19T14:51:47.012Z,23.04
2018-06-19T14:54:14.137Z,23.34
2018-06-19T14:56:41.291Z,23.46
2018-06-19T14:59:08.436Z,23.52
2018-06-19T15:01:35.589Z,23.92
2018-06-19T15:04:02.725Z,24.31
2018-06-19T15:06:29.849Z,24.80
2018-06-19T15:08:56.955Z,25.47
2018-06-19T15:11:24.157Z,25.89
2018-06-19T15:13:51.293Z,26.05
2018-06-19T15:16:18.467Z,25.88
2018-06-19T15:18:45.768Z,25.08
2018-06-19T15:21:12.947Z,25.25
2018-06-19T15:23:40.123Z,26.07
2018-06-19T15:26:07.287Z,26.20
2018-06-19T15:28:34.540Z,25.44
2018-06-19T15:31:01.834Z,24.98
2018-06-19T15:33:29.023Z,25.32
2018-06-19T15:35:56.132Z,24.94
2018-06-19T15:38:23.681Z,24.56
2018-06-19T15:40:50.857Z,24.56
2018-06-19T15:43:18.025Z,24.65
2018-06-19T15:45:45.189Z,24.63
2018-06-19T15:48:12.338Z,24.59
2018-06-19T15:50:39.457Z,24.52
2018-06-19T15:53:06.901Z,24.03
2018-06-19T15:55:33.999Z,23.83
2018-06-19T15:58:01.162Z,24.00
2018-06-19T16:00:28.296Z,24.32
2018-06-19T16:02:55.436Z,24.26
2018-06-19T16:05:22.562Z,24.31
2018-06-19T16:07:55.477Z,24.00
2018-06-19T16:10:22.650Z,24.11
2018-06-19T16:12:49.804Z,23.91
2018-06-19T16:15:16.924Z,24.16
2018-06-19T16:17:44.141Z,24.05
2018-06-19T16:20:11.298Z,23.83
2018-06-19T16:22:38.557Z,23.99
2018-06-19T16:25:05.712Z,24.42
2018-06-19T16:27:32.852Z,24.22
2018-06-19T16:30:00.138Z,24.34
2018-06-19T16:32:27.297Z,24.18
2018-06-19T16:34:54.416Z,24.75
2018-06-19T16:37:21.608Z,24.85
2018-06-19T16:39:48.796Z,25.08
2018-06-19T16:42:15.963Z,24.96
2018-06-19T16:44:43.111Z,24.82
2018-06-19T16:47:10.318Z,24.62
2018-06-19T16:49:37.474Z,24.83
2018-06-19T16:52:04.657Z,24.63
2018-06-19T16:54:31.835Z,24.30
2018-06-19T16:56:59.014Z,24.38
2018-06-19T16:59:26.260Z,24.36
2018-06-19T17:01:53.511Z,24.17
2018-06-19T17:04:20.722Z,24.15
2018-06-19T17:06:47.883Z,23.98
2018-06-19T17:09:15.046Z,23.93
2018-06-19T17:11:42.198Z,24.13
2018-06-19T17:14:09.305Z,24.08
2018-06-19T17:16:36.511Z,24.03
2018-06-19T17:19:04.009Z,24.04
2018-06-19T17:21:31.168Z,23.86
2018-06-19T17:23:58.592Z,24.00
2018-06-19T17:26:25.756Z,24.18
2018-06-19T17:28:52.960Z,24.18
2018-06-19T17:31:20.141Z,23.98
2018-06-19T17:33:47.288Z,23.95
2018-06-19T17:36:14.471Z,23.75
2018-06-19T17:38:41.669Z,23.75
2018-06-19T17:41:09.251Z,23.69
2018-06-19T17:43:36.465Z,23.56
2018-06-19T17:46:03.927Z,23.42
2018-06-19T17:48:31.121Z,23.30
2018-06-19T17:50:58.244Z,23.27
2018-06-19T17:53:25.666Z,23.28
2018-06-19T17:55:52.825Z,23.17
2018-06-19T17:58:19.979Z,23.07
2018-06-19T18:00:47.194Z,23.22
2018-06-19T18:03:14.378Z,23.19
2018-06-19T18:05:41.587Z,23.14
2018-06-19T18:08:08.741Z,23.10
2018-06-19T18:10:35.974Z,23.11
2018-06-19T18:13:03.176Z,23.32
2018-06-19T18:15:30.324Z,23.24
2018-06-19T18:17:57.488Z,23.29
2018-06-19T18:20:24.621Z,23.28
2018-06-19T18:22:51.860Z,23.10
2018-06-19T18:25:18.956Z,23.21
2018-06-19T18:27:46.149Z,23.17
2018-06-19T18:30:13.388Z,23.00
2018-06-19T18:32:40.606Z,22.87
2018-06-19T18:35:10.363Z,22.84
2018-06-19T18:37:37.477Z,22.88
2018-06-19T18:40:04.665Z,22.81
2018-06-19T18:42:31.819Z,22.83
2018-06-19T18:44:59.069Z,22.82
2018-06-19T18:47:26.223Z,22.84
2018-06-19T18:49:53.385Z,22.74
2018-06-19T18:52:20.573Z,22.78
2018-06-19T18:54:47.770Z,22.63
2018-06-19T18:57:14.941Z,22.54
2018-06-19T18:59:42.156Z,22.55
2018-06-19T19:02:09.447Z,22.44
2018-06-19T19:04:36.648Z,22.48
2018-06-19T19:07:03.874Z,22.43
2018-06-19T19:09:31.090Z,22.42
2018-06-19T19:11:58.417Z,22.39
2018-06-19T19:14:29.475Z,22.35
2018-06-19T19:17:02.356Z,22.42
2018-06-19T19:19:29.506Z,22.36
2018-06-19T19:21:56.680Z,22.35
2018-06-19T19:24:23.854Z,22.20
2018-06-19T19:26:57.033Z,22.42
2018-06-19T19:29:30.084Z,22.61
2018-06-19T19:31:57.311Z,22.63
2018-06-19T19:34:24.510Z,22.56
2018-06-19T19:36:57.410Z,22.18
2018-06-19T19:39:28.278Z,22.08
2018-06-19T19:41:55.453Z,21.88
2018-06-19T19:44:22.692Z,21.95
2018-06-19T19:46:55.611Z,22.12
2018-06-19T19:49:22.801Z,22.31
2018-06-19T19:51:50.073Z,22.21
2018-06-19T19:54:17.308Z,22.14
2018-06-19T19:56:50.240Z,21.98
2018-06-19T19:59:17.564Z,22.11
2018-06-19T20:01:44.832Z,21.90
2018-06-19T20:04:12.000Z,21.93
2018-06-19T20:06:39.192Z,21.90
2018-06-19T20:09:07.389Z,21.77
2018-06-19T20:11:35.238Z,21.52
2018-06-19T20:14:02.551Z,21.28
2018-06-19T20:16:29.711Z,21.37
2018-06-19T20:18:56.860Z,21.29
2018-06-19T20:21:23.969Z,21.30
2018-06-19T20:23:51.145Z,21.82
2018-06-19T20:26:18.273Z,21.87
2018-06-19T20:28:45.488Z,21.91
2018-06-19T20:33:46.729Z,21.35
2018-06-19T20:36:13.836Z,21.14
2018-06-19T20:38:41.003Z,21.08
2018-06-19T20:41:08.113Z,20.97
2018-06-19T20:43:35.331Z,21.01
2018-06-19T20:46:02.520Z,20.84
2018-06-19T20:48:29.719Z,20.73
2018-06-19T20:50:56.909Z,20.55
2018-06-19T20:53:24.112Z,20.38
2018-06-19T20:55:51.320Z,20.40
2018-06-19T20:58:18.496Z,20.39
2018-06-19T21:00:45.645Z,20.35
2018-06-19T21:03:12.873Z,20.28
2018-06-19T21:05:40.016Z,20.16
2018-06-19T21:08:07.340Z,19.96
2018-06-19T21:10:34.498Z,19.89
2018-06-19T21:13:01.664Z,19.60
2018-06-19T21:15:29.193Z,19.65
2018-06-19T21:17:56.345Z,19.77
2018-06-19T21:20:23.461Z,19.79
2018-06-19T21:22:50.589Z,19.74
2018-06-19T21:25:17.727Z,19.77
2018-06-19T21:27:44.827Z,19.68
2018-06-19T21:30:12.012Z,19.31
2018-06-19T21:32:39.247Z,18.96
2018-06-19T21:35:06.422Z,19.18
2018-06-19T21:37:33.556Z,19.34
2018-06-19T21:40:00.733Z,19.46
2018-06-19T21:42:27.949Z,19.41
2018-06-19T21:44:55.076Z,19.38
2018-06-19T21:47:22.215Z,19.33
2018-06-19T21:49:49.400Z,19.14
2018-06-19T21:52:16.588Z,18.73
2018-06-19T21:54:43.746Z,18.92
2018-06-19T21:57:10.896Z,18.94
2018-06-19T21:59:38.017Z,18.95
2018-06-19T22:02:05.151Z,18.85
2018-06-19T22:04:32.363Z,18.68
2018-06-19T22:06:59.586Z,18.71
2018-06-19T22:09:26.773Z,18.69
2018-06-19T22:11:53.915Z,18.76
2018-06-19T22:14:21.089Z,18.81
2018-06-19T22:16:48.264Z,18.54
2018-06-19T22:19:15.447Z,18.40
2018-06-19T22:21:42.560Z,18.48
2018-06-19T22:24:09.688Z,18.35
2018-06-19T22:26:36.868Z,18.21
2018-06-19T22:29:04.149Z,18.32
2018-06-19T22:31:31.323Z,18.35
2018-06-19T22:33:58.452Z,18.52
2018-06-19T22:36:25.673Z,18.57
2018-06-19T22:38:52.788Z,18.47
2018-06-19T22:41:19.963Z,17.75
2018-06-19T22:43:47.147Z,17.72
2018-06-19T22:46:14.335Z,17.69
2018-06-19T22:48:41.468Z,17.76
2018-06-19T22:51:08.614Z,17.78
2018-06-19T22:53:35.749Z,17.73
2018-06-19T22:56:02.929Z,17.55
2018-06-19T22:58:30.087Z,17.80
2018-06-19T23:00:57.241Z,17.81
2018-06-19T23:03:24.411Z,17.81
2018-06-19T23:05:51.520Z,17.46
2018-06-19T23:08:18.704Z,16.83
2018-06-19T23:10:45.820Z,17.24
2018-06-19T23:13:12.981Z,17.12
2018-06-19T23:15:40.089Z,17.36
2018-06-19T23:18:07.279Z,17.23
2018-06-19T23:20:34.423Z,17.13
2018-06-19T23:23:01.569Z,17.00
2018-06-19T23:25:28.705Z,17.08
2018-06-19T23:27:55.856Z,17.14
2018-06-19T23:30:23.045Z,17.33
2018-06-19T23:32:50.173Z,17.40
2018-06-19T23:35:17.310Z,17.40
2018-06-19T23:37:44.494Z,17.31
2018-06-19T23:40:11.711Z,17.07
2018-06-19T23:42:38.903Z,16.68
2018-06-19T23:45:06.078Z,16.63
2018-06-19T23:47:33.837Z,16.48
2018-06-19T23:50:00.955Z,16.47
2018-06-19T23:52:28.541Z,16.59
2018-06-19T23:54:55.696Z,16.46
2018-06-19T23:57:23.147Z,16.68
2018-06-19T23:59:50.351Z,16.63
